sensor_id;sensor_type;location;lat;lon;timestamp;temperature;humidity
23697;DHT22;48864;50.820;4.400;2022-09-03T00:01:18;21.00;99.90
23697;DHT22;48864;50.820;4.400;2022-09-03T00:03:48;21.20;99.90
23697;DHT22;48864;50.820;4.400;2022-09-03T00:06:22;21.20;99.90
23697;DHT22;48864;50.820;4.400;2022-09-03T00:09:00;21.30;99.90
23697;DHT22;48864;50.820;4.400;2022-09-03T00:11:30;21.40;99.90
23697;DHT22;48864;50.820;4.400;2022-09-03T00:14:20;21.50;99.90
23697;DHT22;48864;50.820;4.400;2022-09-03T00:17:03;21.60;99.90
23697;DHT22;48864;50.820;4.400;2022-09-03T00:19:33;21.50;99.90
23697;DHT22;48864;50.820;4.400;2022-09-03T00:22:09;21.70;99.90
23697;DHT22;48864;50.820;4.400;2022-09-03T00:24:40;21.60;99.90
23697;DHT22;48864;50.820;4.400;2022-09-03T00:27:12;21.40;99.90
23697;DHT22;48864;50.820;4.400;2022-09-03T00:29:45;21.40;99.90
23697;DHT22;48864;50.820;4.400;2022-09-03T00:32:46;21.50;99.90
23697;DHT22;48864;50.820;4.400;2022-09-03T00:35:28;21.40;99.90
23697;DHT22;48864;50.820;4.400;2022-09-03T00:37:54;21.50;99.90
23697;DHT22;48864;50.820;4.400;2022-09-03T00:40:44;21.70;99.90
23697;DHT22;48864;50.820;4.400;2022-09-03T00:46:13;21.50;99.90
23697;DHT22;48864;50.820;4.400;2022-09-03T00:49:08;21.40;99.90
23697;DHT22;48864;50.820;4.400;2022-09-03T00:54:42;21.40;99.90
23697;DHT22;48864;50.820;4.400;2022-09-03T01:00:11;21.50;99.90
23697;DHT22;48864;50.820;4.400;2022-09-03T01:05:34;21.30;99.90
23697;DHT22;48864;50.820;4.400;2022-09-03T01:08:30;21.40;99.90
23697;DHT22;48864;50.820;4.400;2022-09-03T01:17:11;21.50;99.90
23697;DHT22;48864;50.820;4.400;2022-09-03T01:28:22;21.60;99.90
23697;DHT22;48864;50.820;4.400;2022-09-03T01:33:51;21.60;99.90
23697;DHT22;48864;50.820;4.400;2022-09-03T01:39:02;21.70;99.90
23697;DHT22;48864;50.820;4.400;2022-09-03T01:41:56;21.70;99.90
23697;DHT22;48864;50.820;4.400;2022-09-03T01:50:43;21.60;99.90
23697;DHT22;48864;50.820;4.400;2022-09-03T01:59:08;21.40;99.90
23697;DHT22;48864;50.820;4.400;2022-09-03T02:01:42;21.40;99.90
23697;DHT22;48864;50.820;4.400;2022-09-03T02:04:18;21.50;99.90
23697;DHT22;48864;50.820;4.400;2022-09-03T02:06:47;21.50;99.90
23697;DHT22;48864;50.820;4.400;2022-09-03T02:09:14;21.50;99.90
23697;DHT22;48864;50.820;4.400;2022-09-03T02:11:41;21.60;99.90
23697;DHT22;48864;50.820;4.400;2022-09-03T02:14:08;21.60;99.90
23697;DHT22;48864;50.820;4.400;2022-09-03T02:16:34;21.50;99.90
23697;DHT22;48864;50.820;4.400;2022-09-03T02:19:03;21.50;99.90
23697;DHT22;48864;50.820;4.400;2022-09-03T02:21:35;21.50;99.90
23697;DHT22;48864;50.820;4.400;2022-09-03T02:24:03;21.50;99.90
23697;DHT22;48864;50.820;4.400;2022-09-03T02:26:29;21.40;99.90
23697;DHT22;48864;50.820;4.400;2022-09-03T02:28:55;21.40;99.90
23697;DHT22;48864;50.820;4.400;2022-09-03T02:31:21;21.40;99.90
23697;DHT22;48864;50.820;4.400;2022-09-03T02:33:47;21.30;99.90
23697;DHT22;48864;50.820;4.400;2022-09-03T02:36:17;21.30;99.90
23697;DHT22;48864;50.820;4.400;2022-09-03T02:38:44;21.30;99.90
23697;DHT22;48864;50.820;4.400;2022-09-03T02:41:10;21.30;99.90
23697;DHT22;48864;50.820;4.400;2022-09-03T02:44:02;21.30;99.90
23697;DHT22;48864;50.820;4.400;2022-09-03T02:46:34;21.30;99.90
23697;DHT22;48864;50.820;4.400;2022-09-03T02:49:02;21.30;99.90
23697;DHT22;48864;50.820;4.400;2022-09-03T02:51:32;21.30;99.90
23697;DHT22;48864;50.820;4.400;2022-09-03T02:53:58;21.30;99.90
23697;DHT22;48864;50.820;4.400;2022-09-03T02:56:23;21.20;99.90
23697;DHT22;48864;50.820;4.400;2022-09-03T02:58:52;21.20;99.90
23697;DHT22;48864;50.820;4.400;2022-09-03T03:01:17;21.20;99.90
23697;DHT22;48864;50.820;4.400;2022-09-03T03:03:43;21.40;99.90
23697;DHT22;48864;50.820;4.400;2022-09-03T03:06:09;21.40;99.90
23697;DHT22;48864;50.820;4.400;2022-09-03T03:08:35;21.40;99.90
23697;DHT22;48864;50.820;4.400;2022-09-03T03:11:01;21.30;99.90
23697;DHT22;48864;50.820;4.400;2022-09-03T03:13:27;21.30;99.90
23697;DHT22;48864;50.820;4.400;2022-09-03T03:16:01;21.30;99.90
23697;DHT22;48864;50.820;4.400;2022-09-03T03:18:27;21.20;99.90
23697;DHT22;48864;50.820;4.400;2022-09-03T03:20:53;21.30;99.90
23697;DHT22;48864;50.820;4.400;2022-09-03T03:23:19;21.40;99.90
23697;DHT22;48864;50.820;4.400;2022-09-03T03:25:45;21.40;99.90
23697;DHT22;48864;50.820;4.400;2022-09-03T03:28:11;21.40;99.90
23697;DHT22;48864;50.820;4.400;2022-09-03T03:30:38;21.30;99.90
23697;DHT22;48864;50.820;4.400;2022-09-03T03:33:07;21.20;99.90
23697;DHT22;48864;50.820;4.400;2022-09-03T03:35:34;21.20;99.90
23697;DHT22;48864;50.820;4.400;2022-09-03T03:38:00;20.70;99.90
23697;DHT22;48864;50.820;4.400;2022-09-03T03:40:26;20.40;99.90
23697;DHT22;48864;50.820;4.400;2022-09-03T03:42:51;20.40;99.90
23697;DHT22;48864;50.820;4.400;2022-09-03T03:45:18;20.50;99.90
23697;DHT22;48864;50.820;4.400;2022-09-03T03:47:44;20.50;99.90
23697;DHT22;48864;50.820;4.400;2022-09-03T03:50:10;20.70;99.90
23697;DHT22;48864;50.820;4.400;2022-09-03T03:52:35;20.80;99.90
23697;DHT22;48864;50.820;4.400;2022-09-03T03:55:01;20.80;99.90
23697;DHT22;48864;50.820;4.400;2022-09-03T03:57:29;20.40;99.90
23697;DHT22;48864;50.820;4.400;2022-09-03T03:59:55;20.40;99.90
23697;DHT22;48864;50.820;4.400;2022-09-03T04:02:20;20.40;99.90
23697;DHT22;48864;50.820;4.400;2022-09-03T04:04:46;20.50;99.90
23697;DHT22;48864;50.820;4.400;2022-09-03T04:07:12;20.30;99.90
23697;DHT22;48864;50.820;4.400;2022-09-03T04:09:37;20.30;99.90
23697;DHT22;48864;50.820;4.400;2022-09-03T04:12:03;20.20;99.90
23697;DHT22;48864;50.820;4.400;2022-09-03T04:14:33;20.30;99.90
23697;DHT22;48864;50.820;4.400;2022-09-03T04:16:59;20.40;99.90
23697;DHT22;48864;50.820;4.400;2022-09-03T04:19:25;20.50;99.90
23697;DHT22;48864;50.820;4.400;2022-09-03T04:21:54;20.40;99.90
23697;DHT22;48864;50.820;4.400;2022-09-03T04:24:20;20.20;99.90
23697;DHT22;48864;50.820;4.400;2022-09-03T04:26:45;20.20;99.90
23697;DHT22;48864;50.820;4.400;2022-09-03T04:29:11;20.10;99.90
23697;DHT22;48864;50.820;4.400;2022-09-03T04:31:38;20.20;99.90
23697;DHT22;48864;50.820;4.400;2022-09-03T04:34:04;20.20;99.90
23697;DHT22;48864;50.820;4.400;2022-09-03T04:36:35;20.20;99.90
23697;DHT22;48864;50.820;4.400;2022-09-03T04:39:01;20.20;99.90
23697;DHT22;48864;50.820;4.400;2022-09-03T04:41:29;20.00;99.90
23697;DHT22;48864;50.820;4.400;2022-09-03T04:43:56;19.90;99.90
23697;DHT22;48864;50.820;4.400;2022-09-03T04:46:23;19.80;99.90
23697;DHT22;48864;50.820;4.400;2022-09-03T04:48:53;19.90;99.90
23697;DHT22;48864;50.820;4.400;2022-09-03T04:51:22;19.90;99.90
23697;DHT22;48864;50.820;4.400;2022-09-03T04:53:57;19.30;99.90
23697;DHT22;48864;50.820;4.400;2022-09-03T04:56:28;19.40;99.90
23697;DHT22;48864;50.820;4.400;2022-09-03T04:58:59;19.70;99.90
23697;DHT22;48864;50.820;4.400;2022-09-03T05:01:27;19.90;99.90
23697;DHT22;48864;50.820;4.400;2022-09-03T05:03:57;20.00;99.90
23697;DHT22;48864;50.820;4.400;2022-09-03T05:06:23;20.00;99.90
23697;DHT22;48864;50.820;4.400;2022-09-03T05:08:51;19.90;99.90
23697;DHT22;48864;50.820;4.400;2022-09-03T05:11:18;19.80;99.90
23697;DHT22;48864;50.820;4.400;2022-09-03T05:13:53;19.90;99.90
23697;DHT22;48864;50.820;4.400;2022-09-03T05:16:20;19.60;99.90
23697;DHT22;48864;50.820;4.400;2022-09-03T05:18:47;19.30;99.90
23697;DHT22;48864;50.820;4.400;2022-09-03T05:21:15;19.70;99.90
23697;DHT22;48864;50.820;4.400;2022-09-03T05:23:43;20.00;99.90
23697;DHT22;48864;50.820;4.400;2022-09-03T05:26:12;20.00;99.90
23697;DHT22;48864;50.820;4.400;2022-09-03T05:28:39;19.90;99.90
23697;DHT22;48864;50.820;4.400;2022-09-03T05:31:17;19.70;99.90
23697;DHT22;48864;50.820;4.400;2022-09-03T05:33:45;19.70;99.90
23697;DHT22;48864;50.820;4.400;2022-09-03T05:36:13;19.70;99.90
23697;DHT22;48864;50.820;4.400;2022-09-03T05:38:40;19.70;99.90
23697;DHT22;48864;50.820;4.400;2022-09-03T05:41:08;19.60;99.90
23697;DHT22;48864;50.820;4.400;2022-09-03T05:43:34;19.60;99.90
23697;DHT22;48864;50.820;4.400;2022-09-03T05:46:01;19.60;99.90
23697;DHT22;48864;50.820;4.400;2022-09-03T05:48:32;19.70;99.90
23697;DHT22;48864;50.820;4.400;2022-09-03T05:51:07;19.70;99.90
23697;DHT22;48864;50.820;4.400;2022-09-03T05:53:35;19.80;99.90
23697;DHT22;48864;50.820;4.400;2022-09-03T05:56:03;20.10;99.90
23697;DHT22;48864;50.820;4.400;2022-09-03T05:58:35;20.10;99.90
23697;DHT22;48864;50.820;4.400;2022-09-03T06:01:20;19.90;99.90
23697;DHT22;48864;50.820;4.400;2022-09-03T06:06:20;19.80;99.90
23697;DHT22;48864;50.820;4.400;2022-09-03T06:08:56;19.80;99.90
23697;DHT22;48864;50.820;4.400;2022-09-03T06:11:23;19.90;99.90
23697;DHT22;48864;50.820;4.400;2022-09-03T06:13:53;19.90;99.90
23697;DHT22;48864;50.820;4.400;2022-09-03T06:16:18;19.70;99.90
23697;DHT22;48864;50.820;4.400;2022-09-03T06:18:44;19.70;99.90
23697;DHT22;48864;50.820;4.400;2022-09-03T06:21:09;19.90;99.90
23697;DHT22;48864;50.820;4.400;2022-09-03T06:23:38;19.90;99.90
23697;DHT22;48864;50.820;4.400;2022-09-03T06:26:12;20.00;99.90
23697;DHT22;48864;50.820;4.400;2022-09-03T06:28:40;19.80;99.90
23697;DHT22;48864;50.820;4.400;2022-09-03T06:33:43;19.70;99.90
23697;DHT22;48864;50.820;4.400;2022-09-03T06:36:11;19.70;99.90
23697;DHT22;48864;50.820;4.400;2022-09-03T06:38:39;19.70;99.90
23697;DHT22;48864;50.820;4.400;2022-09-03T06:41:16;19.60;99.90
23697;DHT22;48864;50.820;4.400;2022-09-03T06:43:46;19.70;99.90
23697;DHT22;48864;50.820;4.400;2022-09-03T06:46:22;19.60;99.90
23697;DHT22;48864;50.820;4.400;2022-09-03T06:48:48;19.60;99.90
23697;DHT22;48864;50.820;4.400;2022-09-03T06:51:23;19.90;99.90
23697;DHT22;48864;50.820;4.400;2022-09-03T06:53:53;20.30;99.90
23697;DHT22;48864;50.820;4.400;2022-09-03T06:56:23;20.50;99.90
23697;DHT22;48864;50.820;4.400;2022-09-03T06:58:56;20.70;99.90
23697;DHT22;48864;50.820;4.400;2022-09-03T07:01:32;20.90;99.90
23697;DHT22;48864;50.820;4.400;2022-09-03T07:03:59;21.10;99.90
23697;DHT22;48864;50.820;4.400;2022-09-03T07:06:28;21.20;99.90
23697;DHT22;48864;50.820;4.400;2022-09-03T07:08:54;21.10;99.90
23697;DHT22;48864;50.820;4.400;2022-09-03T07:11:23;21.00;99.90
23697;DHT22;48864;50.820;4.400;2022-09-03T07:13:51;21.00;99.90
23697;DHT22;48864;50.820;4.400;2022-09-03T07:16:29;20.90;99.90
23697;DHT22;48864;50.820;4.400;2022-09-03T07:18:55;21.00;99.90
23697;DHT22;48864;50.820;4.400;2022-09-03T07:21:27;21.10;99.90
23697;DHT22;48864;50.820;4.400;2022-09-03T07:23:54;21.10;99.90
23697;DHT22;48864;50.820;4.400;2022-09-03T07:26:31;21.20;99.90
23697;DHT22;48864;50.820;4.400;2022-09-03T07:28:58;21.10;99.90
23697;DHT22;48864;50.820;4.400;2022-09-03T07:31:26;21.10;99.90
23697;DHT22;48864;50.820;4.400;2022-09-03T07:33:59;21.10;99.90
23697;DHT22;48864;50.820;4.400;2022-09-03T07:36:27;21.30;99.90
23697;DHT22;48864;50.820;4.400;2022-09-03T07:38:57;21.40;99.90
23697;DHT22;48864;50.820;4.400;2022-09-03T07:41:24;21.40;99.90
23697;DHT22;48864;50.820;4.400;2022-09-03T07:43:51;21.50;99.90
23697;DHT22;48864;50.820;4.400;2022-09-03T07:46:19;21.60;99.90
23697;DHT22;48864;50.820;4.400;2022-09-03T07:48:48;21.70;99.90
23697;DHT22;48864;50.820;4.400;2022-09-03T07:51:15;21.80;99.90
23697;DHT22;48864;50.820;4.400;2022-09-03T07:53:42;21.90;99.90
23697;DHT22;48864;50.820;4.400;2022-09-03T07:56:09;21.90;99.90
23697;DHT22;48864;50.820;4.400;2022-09-03T07:58:36;21.90;99.90
23697;DHT22;48864;50.820;4.400;2022-09-03T08:01:04;22.00;99.90
23697;DHT22;48864;50.820;4.400;2022-09-03T08:03:30;22.10;99.90
23697;DHT22;48864;50.820;4.400;2022-09-03T08:06:00;22.00;99.90
23697;DHT22;48864;50.820;4.400;2022-09-03T08:08:26;22.00;99.90
23697;DHT22;48864;50.820;4.400;2022-09-03T08:10:52;22.00;99.90
23697;DHT22;48864;50.820;4.400;2022-09-03T08:13:17;22.00;99.90
23697;DHT22;48864;50.820;4.400;2022-09-03T08:15:53;21.80;99.90
23697;DHT22;48864;50.820;4.400;2022-09-03T08:18:18;21.80;99.90
23697;DHT22;48864;50.820;4.400;2022-09-03T08:20:44;21.90;99.90
23697;DHT22;48864;50.820;4.400;2022-09-03T08:23:10;21.90;99.90
23697;DHT22;48864;50.820;4.400;2022-09-03T08:25:35;22.00;99.90
23697;DHT22;48864;50.820;4.400;2022-09-03T08:28:01;22.00;99.90
23697;DHT22;48864;50.820;4.400;2022-09-03T08:30:27;21.90;99.90
23697;DHT22;48864;50.820;4.400;2022-09-03T08:32:53;21.90;99.90
23697;DHT22;48864;50.820;4.400;2022-09-03T08:35:19;21.90;99.90
23697;DHT22;48864;50.820;4.400;2022-09-03T08:37:45;22.00;99.90
23697;DHT22;48864;50.820;4.400;2022-09-03T08:40:14;22.10;99.90
23697;DHT22;48864;50.820;4.400;2022-09-03T08:45:33;22.20;99.90
23697;DHT22;48864;50.820;4.400;2022-09-03T08:48:12;22.30;99.90
23697;DHT22;48864;50.820;4.400;2022-09-03T08:50:44;22.20;99.90
23697;DHT22;48864;50.820;4.400;2022-09-03T08:53:16;22.30;99.90
23697;DHT22;48864;50.820;4.400;2022-09-03T08:55:52;22.40;99.90
23697;DHT22;48864;50.820;4.400;2022-09-03T08:58:25;22.50;99.90
23697;DHT22;48864;50.820;4.400;2022-09-03T09:01:10;22.50;99.90
23697;DHT22;48864;50.820;4.400;2022-09-03T09:09:29;22.70;99.90
23697;DHT22;48864;50.820;4.400;2022-09-03T09:15:09;22.60;99.90
23697;DHT22;48864;50.820;4.400;2022-09-03T09:20:48;22.70;99.90
23697;DHT22;48864;50.820;4.400;2022-09-03T09:23:26;22.40;99.90
23697;DHT22;48864;50.820;4.400;2022-09-03T09:25:55;22.30;99.90
23697;DHT22;48864;50.820;4.400;2022-09-03T09:28:24;22.30;99.90
23697;DHT22;48864;50.820;4.400;2022-09-03T09:30:53;22.50;99.90
23697;DHT22;48864;50.820;4.400;2022-09-03T09:33:20;22.60;99.90
23697;DHT22;48864;50.820;4.400;2022-09-03T09:35:47;22.50;99.90
23697;DHT22;48864;50.820;4.400;2022-09-03T09:38:13;22.30;99.90
23697;DHT22;48864;50.820;4.400;2022-09-03T09:40:44;22.30;99.90
23697;DHT22;48864;50.820;4.400;2022-09-03T09:43:12;22.50;99.90
23697;DHT22;48864;50.820;4.400;2022-09-03T09:45:42;22.60;99.90
23697;DHT22;48864;50.820;4.400;2022-09-03T09:48:30;22.60;99.90
23697;DHT22;48864;50.820;4.400;2022-09-03T09:51:26;22.70;99.90
23697;DHT22;48864;50.820;4.400;2022-09-03T09:56:35;22.90;99.90
23697;DHT22;48864;50.820;4.400;2022-09-03T09:59:06;22.90;99.90
23697;DHT22;48864;50.820;4.400;2022-09-03T10:01:33;23.00;99.90
23697;DHT22;48864;50.820;4.400;2022-09-03T10:04:06;23.00;99.90
23697;DHT22;48864;50.820;4.400;2022-09-03T10:06:34;23.10;99.90
23697;DHT22;48864;50.820;4.400;2022-09-03T10:09:26;23.10;99.90
23697;DHT22;48864;50.820;4.400;2022-09-03T10:14:33;23.10;99.90
23697;DHT22;48864;50.820;4.400;2022-09-03T10:17:15;23.20;99.90
23697;DHT22;48864;50.820;4.400;2022-09-03T10:23:16;23.00;99.90
23697;DHT22;48864;50.820;4.400;2022-09-03T10:28:12;23.00;99.90
23697;DHT22;48864;50.820;4.400;2022-09-03T10:36:22;23.20;99.90
23697;DHT22;48864;50.820;4.400;2022-09-03T10:39:12;23.20;99.90
23697;DHT22;48864;50.820;4.400;2022-09-03T10:50:41;23.50;99.90
23697;DHT22;48864;50.820;4.400;2022-09-03T10:53:04;23.60;99.90
23697;DHT22;48864;50.820;4.400;2022-09-03T10:55:43;23.80;99.90
23697;DHT22;48864;50.820;4.400;2022-09-03T11:07:06;23.80;99.90
23697;DHT22;48864;50.820;4.400;2022-09-03T11:09:54;23.80;99.90
23697;DHT22;48864;50.820;4.400;2022-09-03T11:12:30;23.80;99.90
23697;DHT22;48864;50.820;4.400;2022-09-03T11:15:03;23.80;99.90
23697;DHT22;48864;50.820;4.400;2022-09-03T11:17:36;23.80;99.90
23697;DHT22;48864;50.820;4.400;2022-09-03T11:20:23;24.00;99.90
23697;DHT22;48864;50.820;4.400;2022-09-03T11:22:54;24.20;99.90
23697;DHT22;48864;50.820;4.400;2022-09-03T11:25:26;24.10;99.90
23697;DHT22;48864;50.820;4.400;2022-09-03T11:28:12;23.90;99.90
23697;DHT22;48864;50.820;4.400;2022-09-03T11:33:33;23.90;99.90
23697;DHT22;48864;50.820;4.400;2022-09-03T11:36:05;23.90;99.90
23697;DHT22;48864;50.820;4.400;2022-09-03T11:38:31;23.90;99.90
23697;DHT22;48864;50.820;4.400;2022-09-03T11:41:23;23.80;99.90
23697;DHT22;48864;50.820;4.400;2022-09-03T11:43:51;23.70;99.90
23697;DHT22;48864;50.820;4.400;2022-09-03T11:48:51;23.50;99.90
23697;DHT22;48864;50.820;4.400;2022-09-03T11:54:00;23.90;99.90
23697;DHT22;48864;50.820;4.400;2022-09-03T11:56:27;24.10;99.90
23697;DHT22;48864;50.820;4.400;2022-09-03T12:02:05;24.30;99.90
23697;DHT22;48864;50.820;4.400;2022-09-03T12:13:20;24.50;99.90
23697;DHT22;48864;50.820;4.400;2022-09-03T12:18:21;24.60;99.90
23697;DHT22;48864;50.820;4.400;2022-09-03T12:21:00;24.70;99.90
23697;DHT22;48864;50.820;4.400;2022-09-03T12:23:43;24.70;99.90
23697;DHT22;48864;50.820;4.400;2022-09-03T12:26:21;24.70;99.90
23697;DHT22;48864;50.820;4.400;2022-09-03T12:28:52;24.60;99.90
23697;DHT22;48864;50.820;4.400;2022-09-03T12:31:22;24.50;99.90
23697;DHT22;48864;50.820;4.400;2022-09-03T12:34:09;24.40;99.90
23697;DHT22;48864;50.820;4.400;2022-09-03T12:36:41;24.50;99.90
23697;DHT22;48864;50.820;4.400;2022-09-03T12:39:12;24.70;99.90
23697;DHT22;48864;50.820;4.400;2022-09-03T12:41:38;24.80;99.90
23697;DHT22;48864;50.820;4.400;2022-09-03T12:44:14;24.90;99.90
23697;DHT22;48864;50.820;4.400;2022-09-03T12:46:39;24.90;99.90
23697;DHT22;48864;50.820;4.400;2022-09-03T12:49:06;25.00;99.90
23697;DHT22;48864;50.820;4.400;2022-09-03T12:51:42;24.80;99.90
23697;DHT22;48864;50.820;4.400;2022-09-03T12:54:10;24.90;99.90
23697;DHT22;48864;50.820;4.400;2022-09-03T12:56:50;24.90;99.90
23697;DHT22;48864;50.820;4.400;2022-09-03T12:59:18;25.10;99.90
23697;DHT22;48864;50.820;4.400;2022-09-03T13:01:48;25.10;99.90
23697;DHT22;48864;50.820;4.400;2022-09-03T13:04:19;25.30;99.90
23697;DHT22;48864;50.820;4.400;2022-09-03T13:07:03;25.40;99.90
23697;DHT22;48864;50.820;4.400;2022-09-03T13:09:35;25.40;99.90
23697;DHT22;48864;50.820;4.400;2022-09-03T13:12:02;25.50;99.90
23697;DHT22;48864;50.820;4.400;2022-09-03T13:14:46;25.60;99.90
23697;DHT22;48864;50.820;4.400;2022-09-03T13:25:52;25.90;99.90
23697;DHT22;48864;50.820;4.400;2022-09-03T13:28:31;26.00;99.90
23697;DHT22;48864;50.820;4.400;2022-09-03T13:34:06;25.70;99.90
23697;DHT22;48864;50.820;4.400;2022-09-03T13:36:53;25.70;99.90
23697;DHT22;48864;50.820;4.400;2022-09-03T13:39:31;25.60;99.90
23697;DHT22;48864;50.820;4.400;2022-09-03T13:42:15;25.60;99.90
23697;DHT22;48864;50.820;4.400;2022-09-03T13:45:20;25.60;99.90
23697;DHT22;48864;50.820;4.400;2022-09-03T13:47:39;25.60;99.90
23697;DHT22;48864;50.820;4.400;2022-09-03T13:50:39;25.70;99.90
23697;DHT22;48864;50.820;4.400;2022-09-03T13:53:23;25.90;99.90
23697;DHT22;48864;50.820;4.400;2022-09-03T13:56:01;26.10;99.90
23697;DHT22;48864;50.820;4.400;2022-09-03T13:58:40;26.30;99.90
23697;DHT22;48864;50.820;4.400;2022-09-03T14:01:25;26.30;99.90
23697;DHT22;48864;50.820;4.400;2022-09-03T14:04:00;26.20;99.90
23697;DHT22;48864;50.820;4.400;2022-09-03T14:06:47;26.20;99.90
23697;DHT22;48864;50.820;4.400;2022-09-03T14:09:23;26.40;99.90
23697;DHT22;48864;50.820;4.400;2022-09-03T14:11:56;26.40;99.90
23697;DHT22;48864;50.820;4.400;2022-09-03T14:15:05;26.10;99.90
23697;DHT22;48864;50.820;4.400;2022-09-03T14:17:41;26.10;99.90
23697;DHT22;48864;50.820;4.400;2022-09-03T14:25:28;26.00;99.90
23697;DHT22;48864;50.820;4.400;2022-09-03T14:28:12;26.10;99.90
23697;DHT22;48864;50.820;4.400;2022-09-03T14:39:31;26.30;99.90
23697;DHT22;48864;50.820;4.400;2022-09-03T14:49:56;26.20;99.90
23697;DHT22;48864;50.820;4.400;2022-09-03T14:52:35;26.00;99.90
23697;DHT22;48864;50.820;4.400;2022-09-03T14:55:33;25.80;99.90
23697;DHT22;48864;50.820;4.400;2022-09-03T15:03:42;26.00;99.90
23697;DHT22;48864;50.820;4.400;2022-09-03T15:26:08;25.80;99.90
23697;DHT22;48864;50.820;4.400;2022-09-03T15:28:55;25.90;99.90
23697;DHT22;48864;50.820;4.400;2022-09-03T15:31:49;25.90;99.90
23697;DHT22;48864;50.820;4.400;2022-09-03T15:40:26;25.60;99.90
23697;DHT22;48864;50.820;4.400;2022-09-03T15:45:48;25.50;99.90
23697;DHT22;48864;50.820;4.400;2022-09-03T15:51:27;24.80;99.90
23697;DHT22;48864;50.820;4.400;2022-09-03T15:54:11;24.50;99.90
23697;DHT22;48864;50.820;4.400;2022-09-03T15:57:36;24.40;99.90
23697;DHT22;48864;50.820;4.400;2022-09-03T16:11:09;24.60;99.90
23697;DHT22;48864;50.820;4.400;2022-09-03T16:16:48;24.80;99.90
23697;DHT22;48864;50.820;4.400;2022-09-03T16:19:35;24.90;99.90
23697;DHT22;48864;50.820;4.400;2022-09-03T16:22:24;24.90;99.90
23697;DHT22;48864;50.820;4.400;2022-09-03T16:27:30;24.90;99.90
23697;DHT22;48864;50.820;4.400;2022-09-03T16:30:42;25.00;99.90
23697;DHT22;48864;50.820;4.400;2022-09-03T17:02:11;24.90;99.90
23697;DHT22;48864;50.820;4.400;2022-09-03T17:05:09;24.90;99.90
23697;DHT22;48864;50.820;4.400;2022-09-03T17:08:07;24.90;99.90
23697;DHT22;48864;50.820;4.400;2022-09-03T17:16:42;24.70;99.90
23697;DHT22;48864;50.820;4.400;2022-09-03T17:35:19;24.10;99.90
23697;DHT22;48864;50.820;4.400;2022-09-03T17:40:34;23.80;99.90
23697;DHT22;48864;50.820;4.400;2022-09-03T17:46:49;23.90;99.90
23697;DHT22;48864;50.820;4.400;2022-09-03T17:49:20;24.10;99.90
23697;DHT22;48864;50.820;4.400;2022-09-03T17:51:57;24.20;99.90
23697;DHT22;48864;50.820;4.400;2022-09-03T17:54:40;24.30;99.90
23697;DHT22;48864;50.820;4.400;2022-09-03T17:59:52;24.50;99.90
23697;DHT22;48864;50.820;4.400;2022-09-03T18:05:23;24.60;99.90
23697;DHT22;48864;50.820;4.400;2022-09-03T18:16:16;24.30;99.90
23697;DHT22;48864;50.820;4.400;2022-09-03T18:18:45;24.30;99.90
23697;DHT22;48864;50.820;4.400;2022-09-03T18:21:21;24.30;99.90
23697;DHT22;48864;50.820;4.400;2022-09-03T18:24:28;24.30;99.90
23697;DHT22;48864;50.820;4.400;2022-09-03T18:27:28;24.20;99.90
23697;DHT22;48864;50.820;4.400;2022-09-03T18:30:15;24.20;99.90
23697;DHT22;48864;50.820;4.400;2022-09-03T18:32:59;24.40;99.90
23697;DHT22;48864;50.820;4.400;2022-09-03T18:35:45;24.30;99.90
23697;DHT22;48864;50.820;4.400;2022-09-03T18:38:35;24.20;99.90
23697;DHT22;48864;50.820;4.400;2022-09-03T19:02:06;23.50;99.90
23697;DHT22;48864;50.820;4.400;2022-09-03T19:05:23;23.60;99.90
23697;DHT22;48864;50.820;4.400;2022-09-03T19:08:18;23.80;99.90
23697;DHT22;48864;50.820;4.400;2022-09-03T19:14:48;23.50;99.90
23697;DHT22;48864;50.820;4.400;2022-09-03T19:21:25;22.90;99.90
23697;DHT22;48864;50.820;4.400;2022-09-03T19:24:11;23.00;99.90
23697;DHT22;48864;50.820;4.400;2022-09-03T19:30:26;22.80;99.90
23697;DHT22;48864;50.820;4.400;2022-09-03T19:33:18;23.00;99.90
23697;DHT22;48864;50.820;4.400;2022-09-03T19:36:08;22.60;99.90
23697;DHT22;48864;50.820;4.400;2022-09-03T19:39:26;22.10;99.90
23697;DHT22;48864;50.820;4.400;2022-09-03T19:45:37;22.30;99.90
23697;DHT22;48864;50.820;4.400;2022-09-03T19:51:40;22.70;99.90
23697;DHT22;48864;50.820;4.400;2022-09-03T19:54:27;22.70;99.90
23697;DHT22;48864;50.820;4.400;2022-09-03T19:57:14;22.90;99.90
23697;DHT22;48864;50.820;4.400;2022-09-03T19:59:59;22.90;99.90
23697;DHT22;48864;50.820;4.400;2022-09-03T20:02:47;22.80;99.90
23697;DHT22;48864;50.820;4.400;2022-09-03T20:05:31;22.70;99.90
23697;DHT22;48864;50.820;4.400;2022-09-03T20:08:16;22.30;99.90
23697;DHT22;48864;50.820;4.400;2022-09-03T20:11:01;22.40;99.90
23697;DHT22;48864;50.820;4.400;2022-09-03T20:13:28;22.40;99.90
23697;DHT22;48864;50.820;4.400;2022-09-03T20:16:36;22.40;99.90
23697;DHT22;48864;50.820;4.400;2022-09-03T20:22:18;22.50;99.90
23697;DHT22;48864;50.820;4.400;2022-09-03T20:30:05;22.80;99.90
23697;DHT22;48864;50.820;4.400;2022-09-03T20:52:21;23.10;99.90
23697;DHT22;48864;50.820;4.400;2022-09-03T21:00:22;23.00;99.90
23697;DHT22;48864;50.820;4.400;2022-09-03T21:11:14;22.60;99.90
23697;DHT22;48864;50.820;4.400;2022-09-03T21:22:05;22.40;99.90
23697;DHT22;48864;50.820;4.400;2022-09-03T21:24:34;22.40;99.90
23697;DHT22;48864;50.820;4.400;2022-09-03T21:27:05;22.50;99.90
23697;DHT22;48864;50.820;4.400;2022-09-03T21:29:45;22.30;99.90
23697;DHT22;48864;50.820;4.400;2022-09-03T21:32:23;22.40;99.90
23697;DHT22;48864;50.820;4.400;2022-09-03T21:37:43;22.30;99.90
23697;DHT22;48864;50.820;4.400;2022-09-03T21:40:12;22.30;99.90
23697;DHT22;48864;50.820;4.400;2022-09-03T21:42:51;22.20;99.90
23697;DHT22;48864;50.820;4.400;2022-09-03T21:45:34;22.20;99.90
23697;DHT22;48864;50.820;4.400;2022-09-03T21:48:14;22.20;99.90
23697;DHT22;48864;50.820;4.400;2022-09-03T21:50:48;22.20;99.90
23697;DHT22;48864;50.820;4.400;2022-09-03T21:53:34;22.10;99.90
23697;DHT22;48864;50.820;4.400;2022-09-03T21:59:13;21.90;99.90
23697;DHT22;48864;50.820;4.400;2022-09-03T22:02:02;21.60;99.90
23697;DHT22;48864;50.820;4.400;2022-09-03T22:04:29;21.60;99.90
23697;DHT22;48864;50.820;4.400;2022-09-03T22:07:06;21.50;99.90
23697;DHT22;48864;50.820;4.400;2022-09-03T22:12:47;21.70;99.90
23697;DHT22;48864;50.820;4.400;2022-09-03T22:15:17;21.90;99.90
23697;DHT22;48864;50.820;4.400;2022-09-03T22:17:50;21.80;99.90
23697;DHT22;48864;50.820;4.400;2022-09-03T22:20:20;21.90;99.90
23697;DHT22;48864;50.820;4.400;2022-09-03T22:25:28;22.00;99.90
23697;DHT22;48864;50.820;4.400;2022-09-03T22:28:09;21.90;99.90
23697;DHT22;48864;50.820;4.400;2022-09-03T22:31:05;21.90;99.90
23697;DHT22;48864;50.820;4.400;2022-09-03T22:33:49;22.00;99.90